createdAt,value
2019-04-04T00:00:20.320Z,6.60
2019-04-04T00:02:47.974Z,6.40
2019-04-04T00:05:16.035Z,6.50
2019-04-04T00:07:43.077Z,6.60
2019-04-04T00:10:11.431Z,6.50
2019-04-04T00:12:38.964Z,6.50
2019-04-04T00:15:06.807Z,6.40
2019-04-04T00:17:33.782Z,6.40
2019-04-04T00:20:00.917Z,6.40
2019-04-04T00:22:28.538Z,6.50
2019-04-04T00:24:55.530Z,6.50
2019-04-04T00:27:22.531Z,6.50
2019-04-04T00:29:49.788Z,6.60
2019-04-04T00:32:16.519Z,6.50
2019-04-04T00:34:43.535Z,6.50
2019-04-04T00:37:10.662Z,6.40
2019-04-04T00:39:38.001Z,6.40
2019-04-04T00:42:06.357Z,6.40
2019-04-04T00:44:33.118Z,6.60
2019-04-04T00:47:01.569Z,6.40
2019-04-04T00:49:28.926Z,6.40
2019-04-04T00:51:55.890Z,6.50
2019-04-04T00:54:22.650Z,6.30
2019-04-04T00:56:49.655Z,6.30
2019-04-04T00:59:16.567Z,6.30
2019-04-04T01:01:43.581Z,6.30
2019-04-04T01:04:10.476Z,6.20
2019-04-04T01:06:37.378Z,6.20
2019-04-04T01:09:05.352Z,6.20
2019-04-04T01:11:32.351Z,6.20
2019-04-04T01:13:59.426Z,6.20
2019-04-04T01:16:26.422Z,6.30
2019-04-04T01:18:53.338Z,6.30
2019-04-04T01:21:22.148Z,6.30
2019-04-04T01:23:49.227Z,6.20
2019-04-04T01:26:16.156Z,6.20
2019-04-04T01:28:43.216Z,6.30
2019-04-04T01:31:10.079Z,6.30
2019-04-04T01:33:36.866Z,6.20
2019-04-04T01:36:03.891Z,6.30
2019-04-04T01:38:30.776Z,6.30
2019-04-04T01:40:57.563Z,6.30
2019-04-04T01:43:24.426Z,6.30
2019-04-04T01:45:51.391Z,6.30
2019-04-04T01:48:18.891Z,6.30
2019-04-04T01:50:46.254Z,6.30
2019-04-04T01:53:12.974Z,6.20
2019-04-04T01:55:39.888Z,6.20
2019-04-04T01:58:07.971Z,6.20
2019-04-04T02:00:35.671Z,6.20
2019-04-04T02:03:02.633Z,6.20
2019-04-04T02:05:29.679Z,6.20
2019-04-04T02:07:56.622Z,5.00
2019-04-04T02:10:23.455Z,6.10
2019-04-04T02:12:50.243Z,6.10
2019-04-04T02:15:17.267Z,6.00
2019-04-04T02:17:44.143Z,6.10
2019-04-04T02:20:11.429Z,6.00
2019-04-04T02:22:38.140Z,6.00
2019-04-04T02:25:05.511Z,6.00
2019-04-04T02:27:32.509Z,6.00
2019-04-04T02:29:59.246Z,6.00
2019-04-04T02:32:27.672Z,6.00
2019-04-04T02:34:54.657Z,6.00
2019-04-04T02:37:22.099Z,6.10
2019-04-04T02:39:49.197Z,6.10
2019-04-04T02:42:16.078Z,6.20
2019-04-04T02:44:42.905Z,6.20
2019-04-04T02:47:09.765Z,6.20
2019-04-04T02:49:36.756Z,6.30
2019-04-04T02:52:03.712Z,6.30
2019-04-04T02:54:30.621Z,6.30
2019-04-04T02:56:57.509Z,6.30
2019-04-04T02:59:24.380Z,6.30
2019-04-04T03:01:51.389Z,6.30
2019-04-04T03:04:18.403Z,6.30
2019-04-04T03:06:45.404Z,6.30
2019-04-04T03:09:12.724Z,6.30
2019-04-04T03:11:39.599Z,6.30
2019-04-04T03:14:06.933Z,6.20
2019-04-04T03:16:33.806Z,6.30
2019-04-04T03:19:00.806Z,6.30
2019-04-04T03:21:27.695Z,6.30
2019-04-04T03:23:54.570Z,6.30
2019-04-04T03:26:21.597Z,6.30
2019-04-04T03:28:48.575Z,6.20
2019-04-04T03:31:15.553Z,6.20
2019-04-04T03:33:42.408Z,6.20
2019-04-04T03:36:09.384Z,6.20
2019-04-04T03:38:36.396Z,6.20
2019-04-04T03:41:03.362Z,6.20
2019-04-04T03:43:30.139Z,6.20
2019-04-04T03:46:00.188Z,6.20
2019-04-04T03:48:25.900Z,6.20
2019-04-04T03:50:56.588Z,6.20
2019-04-04T03:53:22.435Z,6.20
2019-04-04T03:55:49.310Z,6.20
2019-04-04T03:58:16.191Z,6.30
2019-04-04T04:00:43.064Z,6.30
2019-04-04T04:03:09.935Z,6.30
2019-04-04T04:05:40.638Z,6.40
2019-04-04T04:08:05.623Z,6.40
2019-04-04T04:10:33.728Z,6.40
2019-04-04T04:13:01.163Z,6.40
2019-04-04T04:15:30.358Z,6.40
2019-04-04T04:17:56.823Z,6.30
2019-04-04T04:20:23.725Z,6.30
2019-04-04T04:22:51.511Z,6.30
2019-04-04T04:25:18.715Z,6.30
2019-04-04T04:27:48.406Z,6.40
2019-04-04T04:30:14.209Z,6.40
2019-04-04T04:32:41.128Z,6.30
2019-04-04T04:35:09.062Z,6.30
2019-04-04T04:37:38.833Z,6.20
2019-04-04T04:40:06.091Z,6.10
2019-04-04T04:42:33.013Z,6.10
2019-04-04T04:45:00.027Z,6.10
2019-04-04T04:47:27.007Z,6.10
2019-04-04T04:49:55.488Z,6.10
2019-04-04T04:52:22.648Z,6.10
2019-04-04T04:54:49.498Z,8.00
2019-04-04T04:57:28.852Z,6.10
2019-04-04T04:59:45.061Z,6.10
2019-04-04T05:02:12.008Z,6.20
2019-04-04T05:04:38.877Z,6.20
2019-04-04T05:07:07.417Z,6.30
2019-04-04T05:09:34.507Z,6.30
2019-04-04T05:12:01.771Z,6.40
2019-04-04T05:14:29.813Z,6.40
2019-04-04T05:16:57.341Z,6.40
2019-04-04T05:19:24.223Z,6.30
2019-04-04T05:21:51.091Z,6.40
2019-04-04T05:24:18.663Z,6.40
2019-04-04T05:26:45.918Z,6.40
2019-04-04T05:29:13.959Z,6.40
2019-04-04T05:31:41.071Z,6.40
2019-04-04T05:34:07.974Z,6.40
2019-04-04T05:36:36.751Z,6.40
2019-04-04T05:39:06.250Z,6.40
2019-04-04T05:41:33.277Z,6.40
2019-04-04T05:44:00.063Z,6.50
2019-04-04T05:46:27.132Z,6.50
2019-04-04T05:48:54.058Z,6.50
2019-04-04T05:51:21.150Z,6.60
2019-04-04T05:53:48.049Z,6.60
2019-04-04T05:56:15.764Z,6.60
2019-04-04T05:58:42.723Z,6.70
2019-04-04T06:01:11.307Z,6.60
2019-04-04T06:03:38.055Z,6.60
2019-04-04T06:06:05.071Z,6.60
2019-04-04T06:08:32.182Z,6.60
2019-04-04T06:10:59.127Z,6.70
2019-04-04T06:13:27.052Z,6.70
2019-04-04T06:15:54.498Z,6.70
2019-04-04T06:18:21.411Z,6.70
2019-04-04T06:20:48.624Z,6.70
2019-04-04T06:23:15.955Z,6.70
2019-04-04T06:25:42.983Z,6.70
2019-04-04T06:28:11.794Z,6.80
2019-04-04T06:30:43.492Z,6.80
2019-04-04T06:33:07.495Z,6.80
2019-04-04T06:35:34.509Z,6.80
2019-04-04T06:38:01.401Z,6.90
2019-04-04T06:40:30.223Z,6.90
2019-04-04T06:42:57.140Z,6.80
2019-04-04T06:45:23.992Z,6.80
2019-04-04T06:47:50.940Z,6.80
2019-04-04T06:50:17.816Z,6.80
2019-04-04T06:52:44.822Z,6.80
2019-04-04T06:55:11.819Z,6.90
2019-04-04T06:57:38.677Z,6.90
2019-04-04T07:00:07.620Z,6.90
2019-04-04T07:02:34.701Z,6.90
2019-04-04T07:05:01.753Z,6.90
2019-04-04T07:07:28.473Z,6.90
2019-04-04T07:09:55.505Z,6.90
2019-04-04T07:12:28.105Z,6.90
2019-04-04T07:14:51.134Z,6.90
2019-04-04T07:17:17.925Z,7.00
2019-04-04T07:19:46.279Z,6.90
2019-04-04T07:22:13.593Z,7.00
2019-04-04T07:24:40.475Z,6.90
2019-04-04T07:27:07.458Z,7.00
2019-04-04T07:29:34.237Z,7.00
2019-04-04T07:32:01.127Z,7.00
2019-04-04T07:34:27.980Z,7.10
2019-04-04T07:36:54.845Z,7.10
2019-04-04T07:39:21.612Z,7.00
2019-04-04T07:41:48.603Z,7.10
2019-04-04T07:44:15.459Z,7.10
2019-04-04T07:46:45.502Z,7.10
2019-04-04T07:49:11.227Z,7.20
2019-04-04T07:51:38.119Z,7.20
2019-04-04T07:54:05.241Z,7.20
2019-04-04T07:56:33.624Z,7.20
2019-04-04T07:59:00.913Z,7.20
2019-04-04T08:01:27.879Z,7.20
2019-04-04T08:03:54.663Z,7.10
2019-04-04T08:06:21.547Z,7.10
2019-04-04T08:08:48.436Z,7.10
2019-04-04T08:11:15.184Z,7.10
2019-04-04T08:13:42.173Z,7.10
2019-04-04T08:16:09.185Z,7.10
2019-04-04T08:18:36.043Z,7.10
2019-04-04T08:21:05.606Z,7.10
2019-04-04T08:23:31.571Z,7.20
2019-04-04T08:25:58.499Z,7.20
2019-04-04T08:28:25.247Z,7.20
2019-04-04T08:30:51.973Z,7.20
2019-04-04T08:33:18.759Z,7.30
2019-04-04T08:35:45.669Z,7.30
2019-04-04T08:38:12.531Z,7.40
2019-04-04T08:40:39.405Z,7.40
2019-04-04T08:43:06.292Z,7.40
2019-04-04T08:45:33.308Z,7.40
2019-04-04T08:48:00.183Z,7.40
2019-04-04T08:50:27.136Z,7.40
2019-04-04T08:52:53.915Z,7.40
2019-04-04T08:55:20.777Z,7.40
2019-04-04T08:57:47.519Z,7.50
2019-04-04T09:00:14.367Z,7.50
2019-04-04T09:02:41.151Z,7.50
2019-04-04T09:05:12.357Z,7.50
2019-04-04T09:07:36.946Z,7.50
2019-04-04T09:10:05.263Z,7.60
2019-04-04T09:12:32.126Z,7.60
2019-04-04T09:14:59.156Z,7.30
2019-04-04T09:17:26.014Z,7.40
2019-04-04T09:19:52.868Z,7.30
2019-04-04T09:22:19.787Z,7.40
2019-04-04T09:24:46.680Z,7.40
2019-04-04T09:27:13.466Z,7.40
2019-04-04T09:29:40.311Z,7.40
2019-04-04T09:32:07.265Z,7.40
2019-04-04T09:34:34.119Z,7.40
2019-04-04T09:37:00.956Z,7.40
2019-04-04T09:39:27.967Z,7.50
2019-04-04T09:41:54.866Z,7.40
2019-04-04T09:44:21.723Z,7.30
2019-04-04T09:46:48.717Z,7.30
2019-04-04T09:49:15.703Z,7.30
2019-04-04T09:51:42.427Z,7.40
2019-04-04T09:54:09.290Z,7.40
2019-04-04T09:56:36.024Z,7.40
2019-04-04T09:59:03.163Z,7.50
2019-04-04T10:01:30.283Z,7.60
2019-04-04T10:03:57.146Z,7.60
2019-04-04T10:06:24.132Z,7.60
2019-04-04T10:08:51.138Z,7.70
2019-04-04T10:11:18.029Z,7.70
2019-04-04T10:13:45.035Z,7.90
2019-04-04T10:16:12.101Z,7.90
2019-04-04T10:18:38.965Z,7.90
2019-04-04T10:21:11.600Z,8.00
2019-04-04T10:23:34.649Z,8.00
2019-04-04T10:26:01.918Z,8.00
2019-04-04T10:28:28.903Z,7.90
2019-04-04T10:30:55.631Z,7.70
2019-04-04T10:33:22.353Z,7.60
2019-04-04T10:35:49.202Z,7.50
2019-04-04T10:38:15.931Z,7.40
2019-04-04T10:40:42.695Z,7.40
2019-04-04T10:43:09.419Z,7.40
2019-04-04T10:45:36.335Z,7.40
2019-04-04T10:48:03.363Z,7.50
2019-04-04T10:50:30.300Z,7.40
2019-04-04T10:52:57.355Z,7.40
2019-04-04T10:55:24.247Z,7.30
2019-04-04T10:57:51.264Z,7.30
2019-04-04T11:00:19.534Z,7.30
2019-04-04T11:02:46.405Z,7.40
2019-04-04T11:05:13.483Z,7.40
2019-04-04T11:07:40.508Z,7.50
2019-04-04T11:10:08.009Z,7.60
2019-04-04T11:12:35.645Z,7.70
2019-04-04T11:15:03.023Z,7.80
2019-04-04T11:17:29.929Z,7.70
2019-04-04T11:19:56.968Z,7.70
2019-04-04T11:22:23.941Z,7.70
2019-04-04T11:24:50.707Z,7.80
2019-04-04T11:27:17.774Z,7.70
2019-04-04T11:29:44.891Z,7.50
2019-04-04T11:32:11.635Z,7.60
2019-04-04T11:34:38.531Z,7.50
2019-04-04T11:37:05.308Z,7.50
2019-04-04T11:39:32.163Z,7.60
2019-04-04T11:41:59.071Z,7.60
2019-04-04T11:44:25.838Z,7.60
2019-04-04T11:46:52.707Z,7.70
2019-04-04T11:49:19.627Z,7.70
2019-04-04T11:51:46.503Z,7.80
2019-04-04T11:54:13.347Z,7.80
2019-04-04T11:56:40.340Z,7.90
2019-04-04T11:59:08.273Z,7.90
2019-04-04T12:01:37.567Z,8.00
2019-04-04T12:04:04.436Z,8.00
2019-04-04T12:06:31.207Z,8.10
2019-04-04T12:08:57.991Z,8.10
2019-04-04T12:11:24.748Z,8.00
2019-04-04T12:13:51.487Z,8.00
2019-04-04T12:16:19.092Z,7.80
2019-04-04T12:18:45.855Z,7.90
2019-04-04T12:21:12.732Z,7.90
2019-04-04T12:23:39.619Z,7.90
2019-04-04T12:26:06.630Z,7.90
2019-04-04T12:28:33.443Z,7.90
2019-04-04T12:31:00.337Z,7.90
2019-04-04T12:33:27.219Z,7.80
2019-04-04T12:35:54.093Z,7.70
2019-04-04T12:38:20.939Z,7.60
2019-04-04T12:40:47.816Z,7.60
2019-04-04T12:43:14.815Z,7.50
2019-04-04T12:45:42.011Z,7.50
2019-04-04T12:48:09.260Z,7.40
2019-04-04T12:50:36.465Z,7.60
2019-04-04T12:53:03.507Z,7.60
2019-04-04T12:55:30.371Z,7.70
2019-04-04T12:57:57.271Z,7.80
2019-04-04T13:00:24.112Z,7.90
2019-04-04T13:02:51.131Z,7.90
2019-04-04T13:05:18.132Z,8.00
2019-04-04T13:07:45.131Z,8.00
2019-04-04T13:10:12.642Z,7.90
2019-04-04T13:12:39.595Z,7.80
2019-04-04T13:15:07.367Z,7.80
2019-04-04T13:17:34.251Z,7.70
2019-04-04T13:20:01.202Z,7.70
2019-04-04T13:22:28.115Z,7.80
2019-04-04T13:24:55.179Z,7.80
2019-04-04T13:27:21.927Z,7.70
2019-04-04T13:29:48.709Z,7.70
2019-04-04T13:32:15.816Z,7.80
2019-04-04T13:34:42.655Z,7.90
2019-04-04T13:37:09.590Z,7.80
2019-04-04T13:39:36.363Z,7.80
2019-04-04T13:42:03.687Z,7.90
2019-04-04T13:44:30.422Z,7.90
2019-04-04T13:46:57.315Z,7.90
2019-04-04T13:49:24.031Z,7.90
2019-04-04T13:51:53.079Z,7.90
2019-04-04T13:54:19.556Z,7.80
2019-04-04T13:56:46.536Z,7.80
2019-04-04T13:59:13.571Z,7.80
2019-04-04T14:01:42.722Z,7.80
2019-04-04T14:04:09.069Z,7.80
2019-04-04T14:06:35.932Z,7.80
2019-04-04T14:09:05.999Z,7.80
2019-04-04T14:11:32.775Z,7.80
2019-04-04T14:13:59.714Z,7.80
2019-04-04T14:16:26.919Z,7.90
2019-04-04T14:18:53.653Z,7.80
2019-04-04T14:21:20.495Z,7.90
2019-04-04T14:23:47.244Z,7.80
2019-04-04T14:26:14.119Z,7.80
2019-04-04T14:28:40.990Z,7.80
2019-04-04T14:31:07.876Z,7.80
2019-04-04T14:33:34.903Z,7.80
2019-04-04T14:36:01.779Z,7.70
2019-04-04T14:38:28.508Z,7.60
2019-04-04T14:40:55.419Z,7.50
2019-04-04T14:43:22.251Z,7.50
2019-04-04T14:45:49.015Z,7.50
2019-04-04T14:48:16.059Z,7.60
2019-04-04T14:50:42.818Z,7.60
2019-04-04T14:53:09.753Z,7.70
2019-04-04T14:55:36.728Z,7.80
2019-04-04T14:58:03.732Z,7.80
2019-04-04T15:00:30.627Z,8.00
2019-04-04T15:02:57.399Z,8.10
2019-04-04T15:05:24.343Z,8.10
2019-04-04T15:07:51.191Z,8.10
2019-04-04T15:10:18.131Z,8.00
2019-04-04T15:12:45.091Z,8.10
2019-04-04T15:15:12.362Z,8.00
2019-04-04T15:17:39.359Z,7.80
2019-04-04T15:20:06.710Z,7.70
2019-04-04T15:22:33.475Z,8.10
2019-04-04T15:25:00.215Z,8.10
2019-04-04T15:27:27.064Z,8.00
2019-04-04T15:29:54.027Z,7.90
2019-04-04T15:32:21.035Z,8.00
2019-04-04T15:34:47.931Z,8.00
2019-04-04T15:37:14.695Z,7.90
2019-04-04T15:39:41.571Z,7.90
2019-04-04T15:42:08.336Z,7.90
2019-04-04T15:44:35.076Z,7.80
2019-04-04T15:47:01.995Z,7.80
2019-04-04T15:49:28.955Z,7.80
2019-04-04T15:51:55.701Z,7.60
2019-04-04T15:54:22.607Z,7.70
2019-04-04T15:56:49.376Z,7.60
2019-04-04T15:59:16.255Z,7.60
2019-04-04T16:01:43.358Z,7.60
2019-04-04T16:04:10.334Z,7.60
2019-04-04T16:06:37.199Z,7.50
2019-04-04T16:09:05.815Z,7.50
2019-04-04T16:11:32.707Z,7.50
2019-04-04T16:13:59.575Z,7.50
2019-04-04T16:16:26.345Z,7.60
2019-04-04T16:18:53.141Z,7.50
2019-04-04T16:21:20.035Z,7.50
2019-04-04T16:23:47.023Z,7.60
2019-04-04T16:26:13.976Z,7.60
2019-04-04T16:28:40.753Z,7.70
2019-04-04T16:31:07.583Z,7.70
2019-04-04T16:33:34.443Z,7.60
2019-04-04T16:36:05.400Z,7.70
2019-04-04T16:38:32.515Z,7.70
2019-04-04T16:41:00.540Z,7.70
2019-04-04T16:43:27.505Z,7.70
2019-04-04T16:45:55.440Z,7.70
2019-04-04T16:48:22.331Z,7.80
2019-04-04T16:50:49.214Z,7.90
2019-04-04T16:53:16.318Z,8.10
2019-04-04T16:55:43.196Z,8.10
2019-04-04T16:58:10.183Z,8.30
2019-04-04T17:00:37.201Z,6.90
2019-04-04T17:03:04.193Z,8.40
2019-04-04T17:05:31.075Z,8.40
2019-04-04T17:07:57.924Z,8.30
2019-04-04T17:10:24.656Z,8.20
2019-04-04T17:12:51.636Z,8.20
2019-04-04T17:15:18.759Z,8.20
2019-04-04T17:17:45.511Z,8.10
2019-04-04T17:20:12.967Z,8.10
2019-04-04T17:22:39.905Z,8.00
2019-04-04T17:25:06.852Z,8.10
2019-04-04T17:27:33.796Z,8.10
2019-04-04T17:30:00.663Z,8.10
2019-04-04T17:32:27.719Z,8.00
2019-04-04T17:34:54.825Z,7.90
2019-04-04T17:37:21.935Z,7.70
2019-04-04T17:39:48.843Z,7.60
2019-04-04T17:42:28.142Z,7.60
2019-04-04T17:44:44.652Z,7.60
2019-04-04T17:47:11.420Z,7.60
2019-04-04T17:49:38.683Z,7.60
2019-04-04T17:52:05.721Z,7.60
2019-04-04T17:54:32.577Z,7.60
2019-04-04T17:56:59.606Z,7.50
2019-04-04T17:59:26.499Z,7.50
2019-04-04T18:01:53.580Z,7.50
2019-04-04T18:04:20.486Z,7.40
2019-04-04T18:06:47.348Z,7.40
2019-04-04T18:09:14.222Z,7.40
2019-04-04T18:11:41.103Z,7.40
2019-04-04T18:14:08.027Z,7.40
2019-04-04T18:16:34.875Z,7.40
2019-04-04T18:19:01.751Z,7.30
2019-04-04T18:21:28.706Z,7.20
2019-04-04T18:23:55.583Z,7.30
2019-04-04T18:26:22.728Z,7.30
2019-04-04T18:28:49.469Z,7.30
2019-04-04T18:31:16.427Z,7.20
2019-04-04T18:33:49.781Z,7.20
2019-04-04T18:36:16.511Z,7.20
2019-04-04T18:38:43.733Z,7.20
2019-04-04T18:41:11.045Z,7.20
2019-04-04T18:43:37.944Z,7.20
2019-04-04T18:46:04.948Z,7.20
2019-04-04T18:48:32.652Z,7.20
2019-04-04T18:50:59.371Z,7.30
2019-04-04T18:53:26.372Z,7.30
2019-04-04T18:55:53.420Z,7.30
2019-04-04T18:58:20.285Z,7.30
2019-04-04T19:00:47.272Z,7.30
2019-04-04T19:03:14.251Z,7.20
2019-04-04T19:05:41.234Z,7.30
2019-04-04T19:08:08.504Z,7.30
2019-04-04T19:10:35.581Z,7.30
2019-04-04T19:13:05.621Z,7.30
2019-04-04T19:15:31.179Z,7.30
2019-04-04T19:17:58.067Z,7.30
2019-04-04T19:20:44.555Z,7.30
2019-04-04T19:23:11.589Z,6.30
2019-04-04T19:25:38.323Z,8.80
2019-04-04T19:28:05.488Z,7.30
2019-04-04T19:30:32.462Z,7.30
2019-04-04T19:32:59.315Z,7.30
2019-04-04T19:35:26.100Z,7.30
2019-04-04T19:37:59.969Z,7.20
2019-04-04T19:40:22.191Z,7.20
2019-04-04T19:42:49.079Z,7.10
2019-04-04T19:45:16.673Z,7.20
2019-04-04T19:47:43.739Z,7.20
2019-04-04T19:50:11.211Z,7.20
2019-04-04T19:52:38.131Z,7.20
2019-04-04T19:55:05.389Z,7.20
2019-04-04T19:57:32.315Z,7.10
2019-04-04T19:59:59.277Z,7.10
2019-04-04T20:02:26.129Z,7.10
2019-04-04T20:04:53.112Z,7.10
2019-04-04T20:07:19.975Z,7.10
2019-04-04T20:09:46.927Z,7.10
2019-04-04T20:12:13.803Z,7.10
2019-04-04T20:14:40.795Z,7.10
2019-04-04T20:17:07.664Z,7.00
2019-04-04T20:19:34.407Z,7.00
2019-04-04T20:22:01.262Z,7.10
2019-04-04T20:24:28.940Z,7.10
2019-04-04T20:26:55.824Z,7.10
2019-04-04T20:29:22.684Z,7.10
2019-04-04T20:31:49.590Z,7.10
2019-04-04T20:34:16.567Z,7.10
2019-04-04T20:36:43.560Z,7.10
2019-04-04T20:39:10.542Z,7.10
2019-04-04T20:41:37.896Z,7.20
2019-04-04T20:44:04.980Z,9.10
2019-04-04T20:46:31.859Z,7.20
2019-04-04T20:48:58.732Z,7.20
2019-04-04T20:51:25.630Z,7.20
2019-04-04T20:53:52.887Z,7.20
2019-04-04T20:56:19.669Z,7.20
2019-04-04T20:58:46.559Z,7.20
2019-04-04T21:01:13.261Z,7.10
2019-04-04T21:03:40.005Z,7.10
2019-04-04T21:06:07.030Z,7.10
2019-04-04T21:08:36.639Z,7.10
2019-04-04T21:11:03.475Z,7.00
2019-04-04T21:13:30.243Z,7.10
2019-04-04T21:15:57.004Z,7.10
2019-04-04T21:18:23.969Z,7.10
2019-04-04T21:20:50.964Z,7.00
2019-04-04T21:23:17.941Z,7.00
2019-04-04T21:25:44.860Z,7.00
2019-04-04T21:28:11.736Z,7.00
2019-04-04T21:30:38.723Z,7.00
2019-04-04T21:33:05.483Z,7.00
2019-04-04T21:35:32.336Z,7.00
2019-04-04T21:37:59.072Z,7.00
2019-04-04T21:40:25.910Z,7.00
2019-04-04T21:42:54.114Z,7.00
2019-04-04T21:45:21.074Z,7.00
2019-04-04T21:47:48.045Z,7.00
2019-04-04T21:50:15.046Z,7.00
2019-04-04T21:52:41.832Z,7.00
2019-04-04T21:55:09.660Z,7.00
2019-04-04T21:57:36.510Z,7.00
2019-04-04T22:00:05.658Z,6.90
2019-04-04T22:02:32.963Z,6.90
2019-04-04T22:04:59.957Z,7.10
2019-04-04T22:07:26.709Z,6.90
2019-04-04T22:09:54.091Z,6.90
2019-04-04T22:12:20.887Z,6.90
2019-04-04T22:14:47.604Z,6.90
2019-04-04T22:17:14.451Z,6.90
2019-04-04T22:19:41.277Z,6.80
2019-04-04T22:22:08.267Z,6.90
2019-04-04T22:24:35.191Z,6.90
2019-04-04T22:27:01.952Z,6.90
2019-04-04T22:29:29.223Z,6.80
2019-04-04T22:31:56.139Z,6.80
2019-04-04T22:34:23.036Z,6.80
2019-04-04T22:36:50.040Z,6.70
2019-04-04T22:39:16.893Z,6.70
2019-04-04T22:41:43.760Z,6.50
2019-04-04T22:44:10.609Z,7.60
2019-04-04T22:46:37.639Z,6.60
2019-04-04T22:49:04.475Z,6.60
2019-04-04T22:51:31.370Z,6.70
2019-04-04T22:53:58.243Z,6.70
2019-04-04T22:56:25.086Z,6.70
2019-04-04T22:58:52.004Z,6.70
2019-04-04T23:01:18.773Z,6.70
2019-04-04T23:03:45.656Z,6.80
2019-04-04T23:06:12.551Z,6.80
2019-04-04T23:08:39.441Z,6.80
2019-04-04T23:11:06.271Z,6.80
2019-04-04T23:13:33.073Z,6.80
2019-04-04T23:15:59.927Z,6.80
2019-04-04T23:18:26.787Z,6.80
2019-04-04T23:20:53.764Z,6.80
2019-04-04T23:23:20.634Z,6.80
2019-04-04T23:25:47.524Z,6.80
2019-04-04T23:28:14.523Z,6.80
2019-04-04T23:30:41.256Z,6.80
2019-04-04T23:33:08.016Z,6.70
2019-04-04T23:35:34.959Z,6.70
2019-04-04T23:38:01.770Z,6.70
2019-04-04T23:40:28.603Z,6.70
2019-04-04T23:42:55.342Z,6.70
2019-04-04T23:45:22.239Z,6.70
2019-04-04T23:47:48.986Z,6.70
2019-04-04T23:50:15.868Z,6.70
2019-04-04T23:52:42.854Z,6.70
2019-04-04T23:55:09.956Z,6.70
2019-04-04T23:57:36.807Z,6.70
